Aérodrome :
LOGIN :

S'inscrire | Disclaimer

   EN    FR    IT 

 










Légende :    VFR   VFR Marginal   IFR   IFR Intensif   IFR Très Intensif
Visi : 
Plafond : 
>= 8 km
>= 3000ft
5 à 8 km
1000 à 3000 ft
1500m à 5 km
500 à 1000 ft
800 à 1500m
200 à 500 ft
< 800m
< 200 ft
Symboles :   Orages  Brouillard  Fortes neiges  Fortes précipitations  Vent > 20 kt
SIGMETs :   Divers  Orages  Givrage  Turbulence  Onde Orograph.  Cendres Volcan.






- Altitude de l'aérodrome : 306 ft
- Code IATA : EMA


EGNX - Nottingham East Midlands

DERNIER METAR :
  • 212120Z 09013KT 5000 -RA BKN005 04/04 Q1000

METARs EXPIRÉS :
  • 212050Z 09012KT 6000 -RA BKN005 04/04 Q1000
  • 212020Z 09013KT 6000 BKN006 04/03 Q1000
  • 211950Z 08012KT 9999 BKN007 04/03 Q1000
  • 211920Z 08013KT 9999 BKN008 04/03 Q1001
  • 211850Z 08013KT 9999 BKN010 04/03 Q1001

TAF AMD TAF EGNX
Valide du 21 à 19h jusqu'au 22 à 18h UTC


211958Z 2119/2218 09009KT 9999 BKN020
PROB40
TEMPO 2120/2123 4000 BR BKN003
TEMPO 2123/2207 4000 RA BKN003
PROB30
TEMPO 2210/2218 4000 RA BKN010
ATIS : +44 1332 852 852 (ext 3201)



MET'MAP, la Météo Aéronautique d'un coup d'oeil ! - Copyright ORBIFLY Décembre 2007 - Disclaimer

ORBIFLY MET'MAP TEAM :

Programmation & Développement : Alexandra Zaïnal
Conception & Développement : Baudouin d'Aumeries
Co-Programmation & Développement : Marc-Olivier Méhu
Soutien technique & logistique : Manuel Goepfert

Contact : metmap@orbifly.com




SOURCES & CREDITS :

   NOAA